Estación Meteorológica Peña el Pijo (Robertgarden) [ 01/30/23 14:51:15 CET ]

Fecha Hora Presion(HPa) Temp (°C) Humedad % Rocio (°C) Viento ( m/s) Direccion Lluvia 1Hora(mm) Lluvia 24H(mm) LLuvia Total(mm)
2012-Sep-27 01:01:13 1006.100 12.7 72 7.8         178.19
2012-Sep-27 02:01:12 1005.800 12.4 72 7.5         178.19
2012-Sep-27 03:03:24 1006.000 11.8 74 7.3         178.19
2012-Sep-27 04:01:19 1005.900 11.6 76 7.5         178.19
2012-Sep-27 05:01:14 1005.800 11.6 76 7.5         178.19
2012-Sep-27 06:01:13 1005.900 11.5 77 7.6         178.19
2012-Sep-27 07:01:16 1005.900 11.6 78 7.9         178.19
2012-Sep-27 08:01:12 1006.200 11.5 78 7.8         178.19
2012-Sep-27 09:01:12 1006.400 11.9 78 8.2         178.19
2012-Sep-27 10:01:15 1006.700 13.1 75 8.7         178.19
2012-Sep-27 11:01:17 1006.700 16.3 68 10.4 1.3 NNE     178.19
2012-Sep-27 12:01:17 1006.400 17.4 64 10.5         178.19
2012-Sep-27 13:01:14 1006.800 15.9 67 9.8 1.0 E     178.19
2012-Sep-27 14:01:16 1006.700 17.1 66 10.7         178.19
2012-Sep-27 15:01:13 1006.400 15.5 78 11.7         178.19
2012-Sep-27 16:01:20 1006.400 13.9 82 10.9         178.19
2012-Sep-27 17:01:17 1006.600 12.9 87 10.8         178.19
2012-Sep-27 18:01:20 1006.800 12.8 89 11.0         178.19
2012-Sep-27 19:01:13 1006.800 12.9 90 11.3         178.19
2012-Sep-27 20:01:13 1006.900 13.1 91 11.7         178.19
2012-Sep-27 21:01:13 1007.800 13.2 92 11.9         178.19
2012-Sep-27 22:01:13 1008.500 13.2 93 12.1         178.19
2012-Sep-27 23:01:12 1008.100 13.3 93 12.2         178.19

Temperatura Máxima:17°    Temperatura Mínima:11°
Presión Máxima:1008.500 Hpa    Presión Mínima:1005.800 Hpa


Volver